Time;durP1;ratioP1;P1;durP2;ratioP2;P2;SDS_P1;SDS_P2;PMS_P1;PMS_P2;Temp;Humidity;BMP_temperature;BMP_pressure;BME280_temperature;BME280_humidity;BME280_pressure;Samples;Min_cycle;Max_cycle;Signal;HPM_P1;HPM_P2
2024/01/26 00:02:04;;;;;;;22.70;4.93;;;4.60;99.90;;;;;;5018590;28;20183;-88
2024/01/26 00:04:30;;;;;;;22.97;5.00;;;4.70;99.90;;;;;;5026688;28;20236;-89
2024/01/26 00:07:05;;;;;;;19.53;4.60;;;4.60;99.90;;;;;;5017704;28;20230;-89
2024/01/26 00:09:31;;;;;;;17.67;5.20;;;4.60;99.90;;;;;;5023424;28;20186;-89
2024/01/26 00:11:57;;;;;;;18.30;5.00;;;4.60;99.90;;;;;;5016489;28;20179;-89
2024/01/26 00:14:22;;;;;;;14.97;4.80;;;4.60;99.90;;;;;;5021999;28;20337;-89
2024/01/26 00:16:50;;;;;;;20.37;5.40;;;4.60;99.90;;;;;;5015330;28;20176;-89
2024/01/26 00:19:16;;;;;;;19.90;5.50;;;4.60;99.90;;;;;;5026520;28;20186;-89
2024/01/26 00:21:42;;;;;;;11.50;4.80;;;4.60;99.90;;;;;;5026324;28;20364;-89
2024/01/26 00:24:07;;;;;;;19.70;5.23;;;4.60;99.90;;;;;;5023439;28;20285;-89
2024/01/26 00:26:33;;;;;;;13.87;4.83;;;4.60;99.90;;;;;;5014568;28;20183;-89
2024/01/26 00:28:59;;;;;;;23.47;5.40;;;4.60;99.90;;;;;;5023053;28;20237;-90
2024/01/26 00:31:25;;;;;;;21.17;5.77;;;4.60;99.90;;;;;;5014635;28;20593;-89
2024/01/26 00:33:50;;;;;;;13.87;5.27;;;4.60;99.90;;;;;;5030908;28;20225;-89
2024/01/26 00:36:16;;;;;;;20.20;5.50;;;4.60;99.90;;;;;;5017113;28;20194;-90
2024/01/26 00:38:44;;;;;;;18.77;4.80;;;4.60;99.90;;;;;;5026203;28;20206;-88
2024/01/26 00:41:10;;;;;;;19.17;5.13;;;4.60;99.90;;;;;;5015799;28;20251;-89
2024/01/26 00:43:36;;;;;;;19.63;5.10;;;4.50;99.90;;;;;;5014396;28;20218;-89
2024/01/26 00:46:03;;;;;;;19.73;5.17;;;4.50;99.90;;;;;;5014346;28;20179;-89
2024/01/26 00:48:29;;;;;;;14.87;4.83;;;4.50;99.90;;;;;;5023726;28;20175;-89
2024/01/26 00:50:55;;;;;;;14.67;4.33;;;4.50;99.90;;;;;;5031925;28;20179;-89
2024/01/26 00:53:22;;;;;;;14.07;4.37;;;4.50;99.90;;;;;;5015374;28;20269;-88
2024/01/26 00:55:48;;;;;;;17.80;4.80;;;4.50;99.90;;;;;;5014249;28;20191;-89
2024/01/26 00:58:26;;;;;;;18.03;4.70;;;4.50;99.90;;;;;;5022386;28;20223;-90
2024/01/26 01:00:52;;;;;;;18.33;4.70;;;4.50;99.90;;;;;;5023193;28;20208;-89
2024/01/26 01:03:19;;;;;;;16.67;4.20;;;4.60;99.90;;;;;;5021674;28;20642;-89
2024/01/26 01:05:45;;;;;;;13.93;4.33;;;4.60;99.90;;;;;;5014287;28;20179;-89
2024/01/26 01:08:15;;;;;;;16.27;4.80;;;4.60;99.90;;;;;;5013908;28;20237;-89
2024/01/26 01:10:41;;;;;;;17.27;4.30;;;4.60;99.90;;;;;;5021527;28;20631;-89
2024/01/26 01:13:10;;;;;;;24.30;4.90;;;4.70;99.90;;;;;;5023090;28;20277;-89
2024/01/26 01:15:39;;;;;;;16.23;4.10;;;4.70;99.90;;;;;;5014048;28;20183;-89
2024/01/26 01:18:05;;;;;;;20.30;4.53;;;4.70;99.90;;;;;;5030346;28;20182;-89
2024/01/26 01:20:31;;;;;;;15.83;3.83;;;4.70;99.90;;;;;;5014224;28;20185;-88
2024/01/26 01:22:58;;;;;;;19.03;4.87;;;4.70;99.90;;;;;;5022002;28;20207;-89
2024/01/26 01:25:25;;;;;;;21.50;4.93;;;4.70;99.90;;;;;;5019269;28;20178;-89
2024/01/26 01:27:51;;;;;;;19.37;4.60;;;4.60;99.90;;;;;;5017205;28;20215;-89
2024/01/26 01:30:17;;;;;;;17.67;4.70;;;4.60;99.90;;;;;;5014216;28;20187;-89
2024/01/26 01:32:42;;;;;;;14.37;4.17;;;4.60;99.90;;;;;;5014105;28;20198;-89
2024/01/26 01:35:08;;;;;;;21.63;5.07;;;4.60;99.90;;;;;;5023022;28;20522;-89
2024/01/26 01:37:36;;;;;;;17.80;4.33;;;4.60;99.90;;;;;;5028222;28;20201;-89
2024/01/26 01:40:02;;;;;;;14.57;5.07;;;4.60;99.90;;;;;;5016523;28;20621;-89
2024/01/26 01:42:28;;;;;;;16.03;3.90;;;4.60;99.90;;;;;;5014104;28;20238;-89
2024/01/26 01:44:54;;;;;;;23.53;5.30;;;4.60;99.90;;;;;;5010441;28;20176;-89
2024/01/26 01:47:23;;;;;;;17.57;4.40;;;4.60;99.90;;;;;;5015371;28;20571;-89
2024/01/26 01:49:49;;;;;;;23.50;4.80;;;4.70;99.90;;;;;;5017733;28;20237;-89
2024/01/26 01:52:16;;;;;;;19.37;5.07;;;4.70;99.90;;;;;;5017737;28;20187;-89
2024/01/26 01:54:42;;;;;;;14.80;4.00;;;4.70;99.90;;;;;;5027080;28;20262;-89
2024/01/26 01:57:12;;;;;;;14.83;4.40;;;4.80;99.90;;;;;;5017387;28;20638;-90
2024/01/26 01:59:43;;;;;;;14.27;4.43;;;4.80;99.90;;;;;;5017662;28;20179;-89
2024/01/26 02:02:10;;;;;;;13.37;4.20;;;4.80;99.90;;;;;;5017517;28;20203;-89
2024/01/26 02:04:35;;;;;;;18.47;4.37;;;4.90;99.90;;;;;;5017519;28;20245;-90
2024/01/26 02:07:03;;;;;;;13.90;4.13;;;4.80;99.90;;;;;;5017485;28;20625;-90
2024/01/26 02:09:34;;;;;;;20.37;4.57;;;4.80;99.90;;;;;;5031336;28;20240;-89
2024/01/26 02:12:00;;;;;;;18.60;4.07;;;4.90;99.90;;;;;;5019674;28;20615;-88
2024/01/26 02:14:26;;;;;;;18.43;4.73;;;4.90;99.90;;;;;;5017351;28;20186;-89
2024/01/26 02:16:56;;;;;;;22.90;5.03;;;5.00;99.90;;;;;;5017155;28;20254;-89
2024/01/26 02:19:23;;;;;;;26.33;4.93;;;5.00;99.90;;;;;;5016881;28;20207;-88
2024/01/26 02:21:49;;;;;;;19.17;5.10;;;5.20;99.90;;;;;;5016433;28;20179;-87
2024/01/26 02:24:15;;;;;;;16.93;4.33;;;5.20;99.90;;;;;;5016839;28;20194;-89
2024/01/26 02:26:41;;;;;;;25.67;5.33;;;5.20;99.90;;;;;;5017174;28;20190;-88
2024/01/26 02:29:16;;;;;;;21.77;4.43;;;5.30;99.90;;;;;;5016950;28;20179;-88
2024/01/26 02:31:42;;;;;;;15.77;3.97;;;5.40;99.90;;;;;;5024453;28;20181;-89
2024/01/26 02:34:11;;;;;;;15.80;4.37;;;5.40;99.90;;;;;;5017737;28;20702;-88
2024/01/26 02:36:37;;;;;;;21.03;5.17;;;5.40;99.90;;;;;;5016791;28;20525;-88
2024/01/26 02:39:05;;;;;;;28.67;5.50;;;5.40;99.90;;;;;;5017003;28;20214;-89
2024/01/26 02:41:34;;;;;;;23.80;5.00;;;5.50;99.90;;;;;;5016940;28;20187;-89
2024/01/26 02:44:01;;;;;;;20.47;4.73;;;5.50;99.90;;;;;;5016718;28;20213;-88
2024/01/26 02:46:27;;;;;;;17.73;4.50;;;5.40;99.90;;;;;;5016954;28;20186;-89
2024/01/26 02:48:53;;;;;;;19.43;4.70;;;5.40;99.90;;;;;;5016783;28;20191;-89
2024/01/26 02:51:19;;;;;;;20.27;5.20;;;5.40;99.90;;;;;;5020908;28;20625;-88
2024/01/26 02:53:44;;;;;;;19.83;4.73;;;5.40;99.90;;;;;;5020376;28;20211;-89
2024/01/26 02:56:10;;;;;;;20.90;4.10;;;5.40;99.90;;;;;;5016257;28;20238;-89
2024/01/26 02:58:36;;;;;;;17.63;5.67;;;5.40;99.90;;;;;;5016443;28;20263;-89
2024/01/26 03:01:02;;;;;;;17.13;4.40;;;5.40;99.90;;;;;;5018405;28;20190;-87
2024/01/26 03:03:28;;;;;;;19.60;4.40;;;5.50;99.90;;;;;;5030721;28;20211;-87
2024/01/26 03:05:54;;;;;;;29.50;5.10;;;5.60;99.90;;;;;;5016318;28;20195;-88
2024/01/26 03:08:39;;;;;;;18.33;4.50;;;5.60;99.90;;;;;;5016063;28;20274;-89
2024/01/26 03:11:05;;;;;;;17.70;4.67;;;5.60;99.90;;;;;;5018278;28;20210;-89
2024/01/26 03:13:31;;;;;;;18.80;3.83;;;5.70;99.90;;;;;;5019181;28;20179;-88
2024/01/26 03:15:57;;;;;;;17.77;4.37;;;5.70;99.90;;;;;;5014025;28;20194;-89
2024/01/26 03:18:23;;;;;;;16.30;4.73;;;5.70;99.90;;;;;;5016305;28;20187;-88
2024/01/26 03:20:49;;;;;;;20.50;4.13;;;5.60;99.90;;;;;;5024524;28;20213;-88
2024/01/26 03:23:14;;;;;;;17.77;4.87;;;5.60;99.90;;;;;;5015866;28;20215;-88
2024/01/26 03:25:40;;;;;;;13.70;4.03;;;5.70;99.90;;;;;;5024315;28;20194;-89
2024/01/26 03:28:06;;;;;;;16.13;4.30;;;5.70;99.90;;;;;;5024116;28;20187;-88
2024/01/26 03:30:34;;;;;;;20.90;4.73;;;5.70;99.90;;;;;;5016028;28;20186;-89
2024/01/26 03:33:00;;;;;;;24.20;4.90;;;5.60;99.90;;;;;;5015965;28;20187;-89
2024/01/26 03:35:28;;;;;;;16.23;4.47;;;5.60;99.90;;;;;;5016970;28;20186;-88
2024/01/26 03:37:54;;;;;;;23.80;3.90;;;5.60;99.90;;;;;;5015749;28;20187;-88
2024/01/26 03:42:55;;;;;;;19.23;4.70;;;5.60;99.90;;;;;;5009918;22;20246;-88
2024/01/26 03:45:21;;;;;;;22.37;5.23;;;5.50;99.90;;;;;;4995434;28;20199;-88
2024/01/26 03:47:47;;;;;;;19.30;4.77;;;5.50;99.90;;;;;;4995964;28;20202;-88
2024/01/26 03:50:13;;;;;;;19.87;4.07;;;5.50;99.90;;;;;;4995793;28;20207;-88
2024/01/26 03:52:46;;;;;;;21.07;5.27;;;5.50;99.90;;;;;;4995927;28;20194;-89
2024/01/26 03:55:11;;;;;;;23.43;4.97;;;5.60;99.90;;;;;;4995683;28;20533;-88
2024/01/26 03:57:37;;;;;;;19.60;4.47;;;5.50;99.90;;;;;;4995468;28;20195;-88
2024/01/26 04:00:04;;;;;;;24.60;5.00;;;5.60;99.90;;;;;;4995500;28;20200;-89
2024/01/26 04:02:30;;;;;;;20.30;5.03;;;5.60;99.90;;;;;;4996700;28;20223;-89
2024/01/26 04:04:56;;;;;;;20.60;4.87;;;5.60;99.90;;;;;;4995606;28;20192;-88
2024/01/26 04:07:22;;;;;;;23.93;5.13;;;5.60;99.90;;;;;;4995667;28;20334;-87
2024/01/26 04:09:47;;;;;;;21.00;5.70;;;5.60;99.90;;;;;;4995297;28;20635;-88
2024/01/26 04:12:13;;;;;;;19.97;4.90;;;5.70;99.90;;;;;;4994700;28;20211;-88
2024/01/26 04:14:39;;;;;;;18.07;5.17;;;5.70;99.90;;;;;;4995379;28;20199;-88
2024/01/26 04:17:05;;;;;;;17.80;5.13;;;5.80;99.90;;;;;;4996306;28;20184;-88
2024/01/26 04:19:30;;;;;;;17.13;4.67;;;5.70;99.90;;;;;;4995129;28;20648;-87
2024/01/26 04:21:57;;;;;;;16.57;4.50;;;5.80;99.90;;;;;;4995304;28;20184;-87
2024/01/26 04:24:25;;;;;;;14.50;4.27;;;5.70;99.90;;;;;;4995397;28;20191;-88
2024/01/26 04:26:52;;;;;;;22.60;4.97;;;5.70;99.90;;;;;;4994875;28;20188;-88
2024/01/26 04:29:17;;;;;;;18.37;4.23;;;5.70;99.90;;;;;;4995331;28;20249;-88
2024/01/26 04:31:44;;;;;;;18.87;4.53;;;5.60;99.90;;;;;;4994913;28;20630;-87
2024/01/26 04:34:17;;;;;;;18.23;4.40;;;5.70;99.90;;;;;;4994924;28;20191;-88
2024/01/26 04:36:47;;;;;;;16.87;4.10;;;5.70;99.90;;;;;;4994806;28;20183;-88
2024/01/26 04:39:13;;;;;;;18.37;4.33;;;5.70;99.90;;;;;;4995905;28;20271;-88
2024/01/26 04:41:43;;;;;;;19.17;4.00;;;5.70;99.90;;;;;;4994578;28;20240;-87
2024/01/26 04:44:11;;;;;;;20.70;4.77;;;5.70;99.90;;;;;;4995122;28;20223;-88
2024/01/26 04:46:36;;;;;;;17.47;4.43;;;5.70;99.90;;;;;;4996103;28;20641;-87
2024/01/26 04:49:02;;;;;;;13.97;4.00;;;5.70;99.90;;;;;;4995077;28;20196;-89
2024/01/26 04:51:28;;;;;;;17.43;4.33;;;5.80;99.90;;;;;;4994692;28;20191;-88
2024/01/26 04:53:59;;;;;;;15.23;4.23;;;5.80;99.90;;;;;;4994605;28;20194;-87
2024/01/26 04:56:25;;;;;;;19.63;4.40;;;5.90;99.90;;;;;;4994598;28;20298;-88
2024/01/26 04:58:50;;;;;;;20.33;4.27;;;5.90;99.90;;;;;;4994554;28;20226;-88
2024/01/26 05:01:16;;;;;;;16.87;4.07;;;5.90;99.90;;;;;;4995091;28;20533;-87
2024/01/26 05:03:44;;;;;;;17.07;4.90;;;5.90;99.90;;;;;;4994692;28;20212;-88
2024/01/26 05:06:10;;;;;;;15.87;4.40;;;5.90;99.90;;;;;;4994431;28;20191;-88
2024/01/26 05:08:36;;;;;;;13.37;4.20;;;5.90;99.90;;;;;;4994818;28;20195;-88
2024/01/26 05:11:02;;;;;;;16.67;4.20;;;6.00;99.90;;;;;;4994272;28;20191;-87
2024/01/26 05:13:34;;;;;;;16.53;4.77;;;6.00;99.90;;;;;;4995272;28;20187;-89
2024/01/26 05:16:00;;;;;;;15.77;3.93;;;6.00;99.90;;;;;;4995401;28;20637;-88
2024/01/26 05:18:25;;;;;;;13.33;4.50;;;6.00;99.90;;;;;;4994461;28;20187;-89
2024/01/26 05:20:51;;;;;;;15.47;4.50;;;6.00;99.90;;;;;;4994547;28;20188;-87
2024/01/26 05:23:17;;;;;;;15.00;4.43;;;6.00;99.90;;;;;;4997783;28;20223;-87
2024/01/26 05:25:45;;;;;;;19.03;4.97;;;6.00;99.90;;;;;;4998591;28;20242;-87
2024/01/26 05:28:10;;;;;;;19.40;5.17;;;5.90;99.90;;;;;;4998500;28;20211;-87
2024/01/26 05:30:36;;;;;;;20.20;5.00;;;5.90;99.90;;;;;;4998424;28;20191;-87
2024/01/26 05:33:03;;;;;;;28.40;5.17;;;5.90;99.90;;;;;;4998401;28;20194;-88
2024/01/26 05:35:29;;;;;;;20.97;5.17;;;5.80;99.90;;;;;;4998189;28;20187;-87
2024/01/26 05:37:55;;;;;;;21.70;5.53;;;5.90;99.90;;;;;;4999296;28;20191;-86
2024/01/26 05:40:20;;;;;;;15.03;4.97;;;5.90;99.90;;;;;;4998267;28;20195;-88
2024/01/26 05:42:46;;;;;;;18.20;5.37;;;5.90;99.90;;;;;;4997762;28;20227;-87
2024/01/26 05:45:20;;;;;;;13.53;4.70;;;5.90;99.90;;;;;;4998310;28;20207;-87
2024/01/26 05:47:47;;;;;;;18.30;5.03;;;5.90;99.90;;;;;;4998158;28;20230;-88
2024/01/26 05:50:14;;;;;;;16.23;5.07;;;5.90;99.90;;;;;;4998635;28;20218;-86
2024/01/26 05:52:41;;;;;;;16.83;5.70;;;5.90;99.90;;;;;;4997499;28;20250;-87
2024/01/26 05:55:07;;;;;;;21.07;6.07;;;5.90;99.90;;;;;;4997562;28;20215;-87
2024/01/26 05:57:33;;;;;;;19.33;5.63;;;6.00;99.90;;;;;;4997895;28;20198;-87
2024/01/26 06:00:00;;;;;;;18.93;5.97;;;6.00;99.90;;;;;;4997963;28;20195;-87
2024/01/26 06:02:26;;;;;;;16.20;5.40;;;6.00;99.90;;;;;;4997719;28;20212;-87
2024/01/26 06:04:53;;;;;;;20.43;6.10;;;6.00;99.90;;;;;;4997634;28;20199;-87
2024/01/26 06:07:19;;;;;;;22.70;5.47;;;6.00;99.90;;;;;;4997561;28;20242;-87
2024/01/26 06:09:44;;;;;;;18.03;5.70;;;6.00;99.90;;;;;;4998482;28;20199;-87
2024/01/26 06:12:10;;;;;;;22.47;5.90;;;6.10;99.90;;;;;;4997274;28;20244;-87
2024/01/26 06:14:44;;;;;;;18.60;5.50;;;6.00;99.90;;;;;;4997537;28;20198;-88
2024/01/26 06:17:10;;;;;;;19.67;6.03;;;6.00;99.90;;;;;;4997232;28;20195;-86
2024/01/26 06:19:38;;;;;;;17.07;5.20;;;6.00;99.90;;;;;;4997511;28;20283;-87
2024/01/26 06:22:03;;;;;;;15.03;5.97;;;6.00;99.90;;;;;;4997310;28;20203;-87
2024/01/26 06:24:40;;;;;;;17.97;5.20;;;6.00;99.90;;;;;;4997368;28;20202;-87
2024/01/26 06:27:05;;;;;;;16.93;4.90;;;6.00;99.90;;;;;;4997000;28;20187;-87
2024/01/26 06:29:31;;;;;;;16.87;5.60;;;6.00;99.90;;;;;;4996779;28;20222;-87
2024/01/26 06:32:00;;;;;;;20.40;4.97;;;6.00;99.90;;;;;;4997158;28;20226;-87
2024/01/26 06:34:28;;;;;;;14.20;4.90;;;6.00;99.90;;;;;;4996839;28;20645;-86
2024/01/26 06:36:54;;;;;;;13.47;4.60;;;6.10;99.90;;;;;;4996858;28;20192;-87
2024/01/26 06:39:19;;;;;;;17.70;4.70;;;6.10;99.90;;;;;;4996954;28;20198;-87
2024/01/26 06:41:45;;;;;;;15.90;5.27;;;6.10;99.90;;;;;;4997953;28;20231;-87
2024/01/26 06:44:13;;;;;;;17.20;6.00;;;6.20;99.90;;;;;;4997075;28;20247;-88
2024/01/26 06:46:39;;;;;;;10.80;4.87;;;6.20;99.90;;;;;;4997080;28;20195;-87
2024/01/26 06:49:05;;;;;;;14.10;5.10;;;6.20;99.90;;;;;;4996997;28;20184;-87
2024/01/26 06:51:31;;;;;;;12.07;4.70;;;6.20;99.90;;;;;;4997072;28;20180;-87
2024/01/26 06:54:00;;;;;;;14.30;5.07;;;6.30;99.90;;;;;;4996773;28;20198;-86
2024/01/26 06:56:26;;;;;;;10.87;4.70;;;6.30;99.90;;;;;;4996562;28;20274;-87
2024/01/26 06:58:52;;;;;;;11.50;5.17;;;6.30;99.90;;;;;;4996614;28;20254;-87
2024/01/26 07:01:18;;;;;;;10.13;4.30;;;6.30;99.90;;;;;;4996714;28;20211;-87
2024/01/26 07:03:43;;;;;;;19.90;5.10;;;6.30;99.90;;;;;;4996632;28;20211;-87
2024/01/26 07:06:09;;;;;;;13.63;4.80;;;6.30;99.90;;;;;;4996510;28;20591;-87
2024/01/26 07:08:35;;;;;;;13.20;5.03;;;6.30;99.90;;;;;;4996770;28;20258;-88
2024/01/26 07:11:01;;;;;;;10.90;5.03;;;6.40;99.90;;;;;;4996529;28;20222;-88
2024/01/26 07:13:27;;;;;;;13.20;5.00;;;6.40;99.90;;;;;;4996484;28;20215;-87
2024/01/26 07:15:53;;;;;;;14.67;4.93;;;6.50;99.90;;;;;;4996575;28;20188;-88
2024/01/26 07:18:18;;;;;;;10.00;4.13;;;6.50;99.90;;;;;;4996788;28;20403;-88
2024/01/26 07:20:44;;;;;;;10.27;5.00;;;6.60;99.90;;;;;;4997592;28;20238;-89
2024/01/26 07:23:10;;;;;;;12.97;4.60;;;6.60;99.90;;;;;;4997333;28;20720;-88
2024/01/26 07:25:40;;;;;;;9.00;4.17;;;6.70;99.90;;;;;;4997382;28;20203;-87
2024/01/26 07:28:09;;;;;;;11.13;4.70;;;6.60;99.90;;;;;;4996161;28;20238;-88
2024/01/26 07:30:35;;;;;;;10.23;4.77;;;6.60;99.90;;;;;;4996466;28;20238;-87
2024/01/26 07:33:00;;;;;;;8.90;4.50;;;6.60;99.90;;;;;;4997284;28;20188;-88
2024/01/26 07:35:27;;;;;;;12.23;5.07;;;6.60;99.90;;;;;;4997198;28;20218;-88
2024/01/26 07:37:53;;;;;;;14.03;5.63;;;6.70;99.90;;;;;;4997236;28;20179;-89
2024/01/26 07:40:19;;;;;;;12.77;5.17;;;6.70;99.90;;;;;;4996367;28;20218;-88
2024/01/26 07:42:44;;;;;;;11.53;5.17;;;6.70;99.90;;;;;;4994419;28;20232;-87
2024/01/26 07:45:21;;;;;;;13.70;4.97;;;6.70;99.90;;;;;;4992500;28;20312;-89
2024/01/26 07:47:47;;;;;;;7.90;4.50;;;6.80;99.90;;;;;;4992182;28;20561;-88
2024/01/26 07:50:13;;;;;;;12.53;4.50;;;6.80;99.90;;;;;;4995620;28;20194;-89
2024/01/26 07:52:39;;;;;;;10.20;5.00;;;6.80;99.90;;;;;;4995726;28;20215;-88
2024/01/26 07:55:12;;;;;;;11.40;4.87;;;6.80;99.90;;;;;;4995860;28;20199;-89
2024/01/26 07:57:38;;;;;;;7.77;4.63;;;6.90;99.90;;;;;;4995476;28;20187;-87
2024/01/26 08:00:08;;;;;;;11.70;4.80;;;6.90;99.90;;;;;;4995648;28;20254;-88
2024/01/26 08:02:35;;;;;;;9.00;4.83;;;7.00;99.90;;;;;;4995675;28;20231;-88
2024/01/26 08:05:06;;;;;;;11.33;5.53;;;7.10;99.90;;;;;;4995503;28;20199;-89
2024/01/26 08:07:32;;;;;;;8.70;5.03;;;7.10;99.90;;;;;;4996595;28;20180;-89
2024/01/26 08:09:58;;;;;;;11.97;5.67;;;7.20;99.90;;;;;;4995585;28;20187;-90
2024/01/26 08:12:24;;;;;;;11.43;5.40;;;7.30;99.90;;;;;;4995152;28;20622;-89
2024/01/26 08:14:52;;;;;;;10.30;5.33;;;7.40;99.90;;;;;;4995111;28;20706;-89
2024/01/26 08:17:18;;;;;;;8.23;4.90;;;7.50;99.90;;;;;;4995035;28;20191;-88
2024/01/26 08:19:43;;;;;;;9.60;4.83;;;7.50;99.90;;;;;;4995160;28;20597;-89
2024/01/26 08:22:09;;;;;;;8.07;4.77;;;7.60;99.90;;;;;;4994983;28;20191;-88
2024/01/26 08:24:35;;;;;;;8.90;5.13;;;7.70;99.90;;;;;;4994938;28;20249;-89
2024/01/26 08:27:06;;;;;;;8.73;4.80;;;7.70;99.90;;;;;;4995921;28;20188;-88
2024/01/26 08:29:32;;;;;;;9.00;5.10;;;7.70;99.90;;;;;;4995272;28;20236;-90
2024/01/26 08:31:58;;;;;;;8.30;4.83;;;7.90;99.90;;;;;;4995642;28;20505;-90
2024/01/26 08:34:24;;;;;;;7.83;4.80;;;7.90;99.90;;;;;;4995367;28;20192;-87
2024/01/26 08:36:51;;;;;;;10.77;5.57;;;8.00;99.90;;;;;;4995148;28;20350;-91
2024/01/26 08:39:16;;;;;;;10.27;4.80;;;8.20;99.90;;;;;;4987303;28;20275;-90
2024/01/26 08:41:43;;;;;;;9.37;5.03;;;8.20;99.90;;;;;;4994392;28;20297;-90
2024/01/26 08:44:14;;;;;;;8.40;5.30;;;8.20;99.90;;;;;;4994932;28;20215;-88
2024/01/26 08:46:41;;;;;;;8.97;4.83;;;8.20;99.90;;;;;;4995006;28;20258;-89
2024/01/26 08:49:07;;;;;;;9.00;4.83;;;8.30;99.90;;;;;;4995330;28;20192;-88
2024/01/26 08:51:34;;;;;;;9.53;5.40;;;8.30;99.90;;;;;;4994735;28;20194;-89
2024/01/26 08:54:00;;;;;;;9.53;5.20;;;8.30;99.90;;;;;;4994764;28;20192;-90
2024/01/26 08:56:26;;;;;;;12.23;5.20;;;8.30;99.90;;;;;;4993746;28;20522;-92
2024/01/26 08:58:54;;;;;;;10.43;5.47;;;8.30;99.90;;;;;;4994657;28;20516;-93
2024/01/26 09:01:20;;;;;;;9.57;6.03;;;8.40;99.90;;;;;;4995216;28;20223;-89
2024/01/26 09:03:45;;;;;;;8.60;5.23;;;8.40;99.90;;;;;;4994508;28;20247;-89
2024/01/26 09:06:13;;;;;;;10.43;5.37;;;8.50;99.90;;;;;;4994507;28;20188;-88
2024/01/26 09:08:39;;;;;;;9.27;5.20;;;8.50;99.90;;;;;;4994611;28;20187;-88
2024/01/26 09:11:05;;;;;;;8.10;4.30;;;8.50;99.90;;;;;;4994808;28;20183;-90
2024/01/26 09:13:30;;;;;;;8.00;4.40;;;8.50;99.90;;;;;;4994361;28;20287;-89
2024/01/26 09:15:57;;;;;;;8.73;4.88;;;8.50;99.90;;;;;;4994190;28;20646;-91
2024/01/26 09:18:23;;;;;;;9.00;4.77;;;8.50;99.90;;;;;;4994423;28;20200;-88
2024/01/26 09:20:49;;;;;;;7.37;4.27;;;8.60;99.90;;;;;;4994442;28;20210;-90
2024/01/26 09:23:16;;;;;;;8.93;4.90;;;8.60;99.90;;;;;;4995515;28;20650;-89
2024/01/26 09:25:52;;;;;;;6.93;4.40;;;8.60;99.90;;;;;;4994586;28;20188;-89
2024/01/26 09:28:18;;;;;;;6.53;4.20;;;8.60;99.90;;;;;;4986514;28;20286;-90
2024/01/26 09:31:06;;;;;;;5.73;4.13;;;8.50;99.90;;;;;;4994331;28;20370;-87
2024/01/26 09:33:33;;;;;;;8.00;4.03;;;8.60;99.90;;;;;;4989612;28;20187;-90
2024/01/26 09:35:58;;;;;;;6.40;4.37;;;8.60;99.90;;;;;;4994691;28;20250;-89
2024/01/26 09:38:25;;;;;;;8.17;3.70;;;8.60;99.90;;;;;;4994186;28;20191;-90
2024/01/26 09:40:51;;;;;;;6.90;3.83;;;8.50;99.90;;;;;;4994133;28;20260;-89
2024/01/26 09:43:17;;;;;;;4.93;3.67;;;8.60;99.90;;;;;;4985948;28;20793;-91
2024/01/26 09:45:50;;;;;;;7.43;4.27;;;8.60;99.90;;;;;;4994325;28;20267;-87
2024/01/26 09:48:19;;;;;;;5.50;3.90;;;8.50;99.90;;;;;;4994504;28;20196;-89
2024/01/26 09:50:50;;;;;;;6.68;4.25;;;8.50;99.90;;;;;;4994567;28;20192;-89
2024/01/26 09:53:17;;;;;;;7.97;4.33;;;8.40;99.90;;;;;;4994232;28;20275;-88
2024/01/26 09:55:45;;;;;;;5.23;4.23;;;8.40;99.90;;;;;;4995544;28;20182;-88
2024/01/26 09:58:11;;;;;;;7.03;4.60;;;8.40;99.90;;;;;;4994709;28;20188;-88
2024/01/26 10:00:37;;;;;;;7.50;4.27;;;8.40;99.90;;;;;;4993563;28;20280;-87
2024/01/26 10:03:03;;;;;;;7.83;4.70;;;8.40;99.90;;;;;;4992361;28;20302;-88
2024/01/26 10:05:29;;;;;;;7.97;4.40;;;8.40;99.90;;;;;;4994467;28;20200;-87
2024/01/26 10:07:56;;;;;;;7.23;4.70;;;8.40;99.90;;;;;;4994589;28;20199;-89
2024/01/26 10:10:23;;;;;;;6.47;4.57;;;8.40;99.90;;;;;;4997572;28;20194;-92
2024/01/26 10:12:50;;;;;;;9.53;4.90;;;8.40;99.90;;;;;;4997585;28;20194;-89
2024/01/26 10:15:16;;;;;;;7.77;4.93;;;8.50;99.90;;;;;;4998071;28;20195;-90
2024/01/26 10:17:43;;;;;;;7.10;4.97;;;8.50;99.90;;;;;;4998166;28;20188;-87
2024/01/26 10:20:15;;;;;;;6.47;4.47;;;8.50;99.90;;;;;;4997995;28;20246;-89
2024/01/26 10:22:45;;;;;;;7.63;4.70;;;8.50;99.90;;;;;;4998188;28;20215;-89
2024/01/26 10:25:13;;;;;;;8.10;4.93;;;8.50;99.90;;;;;;4997875;28;20199;-88
2024/01/26 10:27:41;;;;;;;9.53;5.27;;;8.50;99.90;;;;;;4998034;28;20564;-90
2024/01/26 10:30:10;;;;;;;8.60;4.77;;;8.50;99.90;;;;;;4996524;28;20231;-91
2024/01/26 10:32:36;;;;;;;7.13;4.60;;;8.50;99.90;;;;;;4997499;28;20196;-92
2024/01/26 10:35:04;;;;;;;7.20;4.80;;;8.50;99.90;;;;;;4998209;28;20199;-90
2024/01/26 10:37:35;;;;;;;7.70;4.90;;;8.60;99.90;;;;;;4998474;28;20279;-90
2024/01/26 10:40:04;;;;;;;8.40;5.10;;;8.60;99.90;;;;;;4997954;28;20624;-85
2024/01/26 10:42:30;;;;;;;8.82;5.30;;;8.60;99.90;;;;;;4997680;28;20244;-93
2024/01/26 10:45:00;;;;;;;6.78;5.00;;;8.50;99.90;;;;;;4998427;28;20677;-88
2024/01/26 10:47:27;;;;;;;7.90;5.10;;;8.60;99.90;;;;;;4997444;28;20275;-86
2024/01/26 10:49:56;;;;;;;12.20;5.43;;;8.60;99.90;;;;;;4997065;28;20642;-88
2024/01/26 10:52:22;;;;;;;8.77;4.95;;;8.60;99.90;;;;;;4996042;28;20619;-87
2024/01/26 10:54:50;;;;;;;10.37;5.43;;;8.60;99.90;;;;;;4996921;28;20198;-87
2024/01/26 10:57:17;;;;;;;8.97;5.63;;;8.60;99.90;;;;;;4997047;28;20192;-86
2024/01/26 10:59:44;;;;;;;8.70;5.20;;;8.70;99.90;;;;;;4996955;28;20689;-91
2024/01/26 11:02:22;;;;;;;8.10;5.43;;;8.70;99.90;;;;;;4996820;28;20195;-90
2024/01/26 11:04:49;;;;;;;7.45;5.00;;;8.70;99.90;;;;;;4996459;28;20199;-87
2024/01/26 11:07:21;;;;;;;8.07;5.10;;;8.70;99.90;;;;;;4996181;28;20188;-87
2024/01/26 11:09:49;;;;;;;9.35;4.97;;;8.80;99.90;;;;;;4996974;28;20283;-92
2024/01/26 11:12:22;;;;;;;8.15;5.50;;;8.80;99.90;;;;;;4996725;28;20520;-90
2024/01/26 11:15:15;;;;;;;8.07;5.43;;;8.80;99.90;;;;;;4996803;28;20192;-90
2024/01/26 11:17:45;;;;;;;8.57;5.07;;;8.80;99.90;;;;;;4993270;28;20234;-88
2024/01/26 11:20:13;;;;;;;8.40;5.37;;;8.90;99.90;;;;;;4996280;28;20668;-90
2024/01/26 11:22:39;;;;;;;8.00;4.85;;;8.90;99.90;;;;;;4997015;28;20212;-87
2024/01/26 11:25:05;;;;;;;6.13;4.60;;;8.90;99.90;;;;;;4997887;28;20283;-90
2024/01/26 11:27:35;;;;;;;8.07;5.22;;;8.90;99.90;;;;;;4997038;28;20275;-88
2024/01/26 11:30:01;;;;;;;6.35;4.78;;;9.00;99.90;;;;;;4998421;28;20634;-92
2024/01/26 11:32:27;;;;;;;6.70;5.03;;;9.00;99.90;;;;;;4997522;28;20325;-90
2024/01/26 11:35:02;;;;;;;6.78;4.60;;;9.10;99.90;;;;;;4997110;28;20278;-90
2024/01/26 11:37:37;;;;;;;6.30;4.45;;;9.10;99.90;;;;;;4997308;28;20180;-91
2024/01/26 11:40:04;;;;;;;8.70;4.45;;;9.10;99.90;;;;;;4997391;28;20188;-89
2024/01/26 11:42:31;;;;;;;6.22;4.18;;;9.10;99.90;;;;;;4996949;28;20259;-90
2024/01/26 11:45:12;;;;;;;4.68;3.97;;;9.10;99.90;;;;;;4996729;28;20192;-89
2024/01/26 11:47:45;;;;;;;6.55;4.30;;;9.10;99.90;;;;;;4997037;28;20535;-94
2024/01/26 11:50:11;;;;;;;5.65;4.20;;;9.10;99.90;;;;;;4996816;28;20215;-89
2024/01/26 11:52:38;;;;;;;5.45;3.83;;;9.20;99.90;;;;;;4996753;28;20195;-91
2024/01/26 11:55:06;;;;;;;6.85;3.50;;;9.10;99.90;;;;;;4996440;28;20226;-89
2024/01/26 11:57:32;;;;;;;4.78;3.63;;;9.10;99.90;;;;;;4996365;28;20188;-89
2024/01/26 12:00:10;;;;;;;7.03;4.03;;;9.10;99.90;;;;;;4996000;28;20188;-91
2024/01/26 12:02:36;;;;;;;4.47;3.20;;;9.20;99.90;;;;;;4997333;28;20195;-89
2024/01/26 12:05:02;;;;;;;4.17;3.40;;;9.20;99.90;;;;;;4996161;28;20600;-91
2024/01/26 12:07:28;;;;;;;3.88;3.03;;;9.30;99.90;;;;;;4996175;28;20179;-91
2024/01/26 12:09:55;;;;;;;3.53;2.80;;;9.40;99.90;;;;;;4995919;28;20216;-87
2024/01/26 12:12:21;;;;;;;3.03;2.70;;;9.40;99.90;;;;;;4996190;28;20184;-90
2024/01/26 12:14:47;;;;;;;4.53;2.77;;;9.40;99.90;;;;;;4995822;28;20188;-89
2024/01/26 12:17:13;;;;;;;3.38;2.67;;;9.40;99.90;;;;;;4995634;28;20188;-88
2024/01/26 12:19:41;;;;;;;3.22;2.45;;;9.40;99.90;;;;;;4995959;28;20282;-90
2024/01/26 12:22:07;;;;;;;2.95;2.33;;;9.40;99.90;;;;;;4995283;28;20183;-89
2024/01/26 12:24:36;;;;;;;2.42;2.00;;;9.40;99.90;;;;;;4995629;28;20727;-90
2024/01/26 12:27:03;;;;;;;2.97;2.25;;;9.30;99.90;;;;;;4995527;28;20184;-89
2024/01/26 12:29:48;;;;;;;2.40;2.10;;;9.30;99.90;;;;;;4995546;28;20187;-90
2024/01/26 12:32:13;;;;;;;2.42;1.92;;;9.40;99.90;;;;;;4996165;28;20242;-93
2024/01/26 12:34:41;;;;;;;2.17;1.70;;;9.40;99.90;;;;;;4995196;28;20192;-89
2024/01/26 12:37:11;;;;;;;4.13;2.20;;;9.50;99.90;;;;;;4994689;28;20250;-89
2024/01/26 12:39:37;;;;;;;2.10;1.90;;;9.50;99.90;;;;;;4996246;28;20279;-88
2024/01/26 12:42:03;;;;;;;4.88;2.40;;;9.60;99.90;;;;;;4994818;28;20238;-88
2024/01/26 12:44:31;;;;;;;3.67;2.20;;;9.60;99.90;;;;;;4995240;28;20658;-89
2024/01/26 12:46:58;;;;;;;5.18;2.67;;;9.60;99.90;;;;;;4995016;28;20183;-89
2024/01/26 12:49:33;;;;;;;4.63;2.20;;;9.70;99.90;;;;;;4994978;28;20196;-89
2024/01/26 12:51:59;;;;;;;2.50;2.30;;;9.70;99.90;;;;;;4994803;28;20534;-89
2024/01/26 12:54:25;;;;;;;1.20;1.10;;;9.90;99.90;;;;;;4995552;28;20180;-92